Terminal Aerodrome Forecast
Issued by NWS Huntsville, AL

Home | Current Version | Previous Version | Text Only | Print | Product List | Glossary On
Versions: 1 2 3 4 5 6 7 8 9 10 11 12
000
FTUS44 KHUN 242335
TAFMSL
TAF
KMSL 242335Z 2500/2524 VRB04KT P6SM FEW050 FEW250
      TEMPO 2508/2512 5SM BR
     FM251600 VRB05KT P6SM SCT040 SCT250
     FM252300 VRB04KT P6SM FEW040 SCT250=

USA.gov is the U.S. government's official web portal to all federal, state and local government web resources and services.